createdAt,value
2022-10-12T00:01:03.702Z,101538.44
2022-10-12T00:03:32.001Z,101528.97
2022-10-12T00:06:05.496Z,101527.84
2022-10-12T00:08:37.298Z,101531.53
2022-10-12T00:11:06.719Z,101532.09
2022-10-12T00:13:35.584Z,101500.09
2022-10-12T00:16:04.686Z,101529.91
2022-10-12T00:18:33.443Z,101527.34
2022-10-12T00:21:03.132Z,101527.34
2022-10-12T00:23:33.267Z,101527.34
2022-10-12T00:26:06.466Z,101524.09
2022-10-12T00:28:35.781Z,101525.94
2022-10-12T00:31:08.653Z,101527.78
2022-10-12T00:33:37.821Z,101528.22
2022-10-12T00:36:13.901Z,101530.06
2022-10-12T00:38:42.226Z,101532.06
2022-10-12T00:41:12.260Z,101528.53
2022-10-12T00:43:42.204Z,101540.41
2022-10-12T00:46:16.010Z,101538.03
2022-10-12T00:48:47.231Z,101533.78
2022-10-12T00:51:17.987Z,101527.88
2022-10-12T00:53:50.785Z,101533.41
2022-10-12T00:56:25.393Z,101529.16
2022-10-12T00:58:55.116Z,101529.16
2022-10-12T01:01:24.112Z,101532.56
2022-10-12T01:03:52.645Z,101532.56
2022-10-12T01:06:21.640Z,101530.56
2022-10-12T01:08:50.676Z,101530.16
2022-10-12T01:11:20.411Z,101530.44
2022-10-12T01:13:48.643Z,101524.38
2022-10-12T01:16:24.195Z,101521.69
2022-10-12T01:19:00.017Z,101526.22
2022-10-12T01:21:28.661Z,101518.16
2022-10-12T01:24:28.815Z,101517.59
2022-10-12T01:27:29.628Z,101516.19
2022-10-12T01:30:13.286Z,101491.34
2022-10-12T01:32:53.987Z,101515.38
2022-10-12T01:35:27.945Z,101493.19
2022-10-12T01:38:05.270Z,101186.25
2022-10-12T01:40:38.714Z,101516.22
2022-10-12T01:43:09.348Z,101512.53
2022-10-12T01:45:38.986Z,101519.66
2022-10-12T01:48:07.619Z,101519.66
2022-10-12T01:50:51.150Z,101516.22
2022-10-12T01:53:34.630Z,101513.13
2022-10-12T01:56:10.366Z,101509.72
2022-10-12T01:58:52.936Z,101504.34
2022-10-12T02:01:30.986Z,101500.97
2022-10-12T02:04:07.946Z,101504.94
2022-10-12T02:06:40.747Z,101498.84
2022-10-12T02:09:16.070Z,101494.78
2022-10-12T02:11:47.777Z,101487.72
2022-10-12T02:14:18.602Z,101487.16
2022-10-12T02:16:54.387Z,101480.94
2022-10-12T02:19:26.802Z,101477.84
2022-10-12T02:21:57.296Z,101483.22
2022-10-12T02:24:25.955Z,101483.22
2022-10-12T02:26:55.882Z,101486.19
2022-10-12T02:29:29.861Z,101484.47
2022-10-12T02:32:06.031Z,101357.22
2022-10-12T02:34:38.453Z,101482.78
2022-10-12T02:37:10.963Z,101486.47
2022-10-12T02:39:44.737Z,101483.34
2022-10-12T02:42:17.938Z,101490.16
2022-10-12T02:44:47.627Z,101493.97
2022-10-12T02:47:19.328Z,101491.44
2022-10-12T02:49:48.747Z,101487.91
2022-10-12T02:52:17.085Z,101487.19
2022-10-12T02:54:45.491Z,101490.16
2022-10-12T02:57:13.814Z,101481.25
2022-10-12T02:59:42.103Z,101483.81
2022-10-12T03:02:10.922Z,101468.56
2022-10-12T03:04:40.925Z,101470.38
2022-10-12T03:07:09.148Z,101468.97
2022-10-12T03:09:37.471Z,101478.72
2022-10-12T03:12:05.927Z,101475.91
2022-10-12T03:14:35.285Z,101359.16
2022-10-12T03:17:03.566Z,101464.88
2022-10-12T03:19:31.952Z,101466.00
2022-10-12T03:22:01.664Z,101475.75
2022-10-12T03:24:29.887Z,101474.06
2022-10-12T03:26:58.202Z,101468.81
2022-10-12T03:29:26.510Z,101471.66
2022-10-12T03:31:55.382Z,101473.50
2022-10-12T03:34:23.611Z,101461.63
2022-10-12T03:36:52.487Z,101474.63
2022-10-12T03:39:22.249Z,101472.66
2022-10-12T03:41:50.442Z,101474.06
2022-10-12T03:44:18.757Z,101471.38
2022-10-12T03:46:47.095Z,101471.66
2022-10-12T03:49:15.413Z,101485.22
2022-10-12T03:51:43.824Z,101476.03
2022-10-12T03:54:12.208Z,101479.56
2022-10-12T03:56:41.991Z,101476.88
2022-10-12T03:59:10.387Z,101480.28
2022-10-12T04:01:45.095Z,101480.97
2022-10-12T04:04:13.602Z,101486.50
2022-10-12T04:06:41.841Z,101483.22
2022-10-12T04:09:10.335Z,101484.34
2022-10-12T04:11:39.587Z,101493.38
2022-10-12T04:14:09.379Z,101485.75
2022-10-12T04:16:38.887Z,101500.16
2022-10-12T04:19:07.202Z,101504.13
2022-10-12T04:21:35.476Z,101500.72
2022-10-12T04:24:03.824Z,101496.94
2022-10-12T04:26:32.074Z,101497.91
2022-10-12T04:29:00.337Z,101498.75
2022-10-12T04:31:30.797Z,101500.72
2022-10-12T04:33:59.254Z,101482.34
2022-10-12T04:36:27.981Z,101501.56
2022-10-12T04:39:00.779Z,101497.88
2022-10-12T04:41:29.556Z,101508.22
2022-10-12T04:43:58.031Z,101503.56
2022-10-12T04:46:26.468Z,101498.19
2022-10-12T04:48:57.131Z,101505.38
2022-10-12T04:51:25.543Z,101502.28
2022-10-12T04:53:53.873Z,101504.38
2022-10-12T04:56:22.111Z,101504.38
2022-10-12T04:58:50.582Z,101498.03
2022-10-12T05:01:19.105Z,101506.22
2022-10-12T05:03:48.101Z,101506.22
2022-10-12T05:06:17.809Z,101501.25
2022-10-12T05:08:46.240Z,101510.84
2022-10-12T05:11:15.007Z,101510.72
2022-10-12T05:13:43.312Z,101503.78
2022-10-12T05:16:11.522Z,101512.81
2022-10-12T05:18:39.909Z,101515.38
2022-10-12T05:21:08.175Z,101511.00
2022-10-12T05:23:37.898Z,101511.13
2022-10-12T05:26:06.338Z,101512.97
2022-10-12T05:28:39.799Z,101511.41
2022-10-12T05:31:09.656Z,101516.44
2022-10-12T05:33:38.958Z,101521.94
2022-10-12T05:36:08.525Z,101517.69
2022-10-12T05:38:38.618Z,101522.22
2022-10-12T05:41:07.531Z,101515.56
2022-10-12T05:43:35.906Z,101487.16
2022-10-12T05:46:04.716Z,101514.00
2022-10-12T05:48:33.473Z,101518.50
2022-10-12T05:51:01.758Z,101515.13
2022-10-12T05:53:30.023Z,101522.31
2022-10-12T05:56:01.192Z,101512.31
2022-10-12T05:58:31.229Z,101479.50
2022-10-12T06:01:06.141Z,101522.03
2022-10-12T06:03:35.203Z,101499.97
2022-10-12T06:06:04.957Z,101511.72
2022-10-12T06:08:34.445Z,101533.41
2022-10-12T06:11:04.647Z,101532.44
2022-10-12T06:13:33.087Z,101536.25
2022-10-12T06:16:01.302Z,101538.91
2022-10-12T06:18:29.806Z,101533.56
2022-10-12T06:23:46.702Z,101539.47
2022-10-12T06:26:16.475Z,101543.34
2022-10-12T06:28:44.830Z,101529.91
2022-10-12T06:31:14.223Z,101547.72
2022-10-12T06:33:42.548Z,101545.50
2022-10-12T06:36:10.797Z,101542.09
2022-10-12T06:38:39.123Z,101545.00
2022-10-12T06:41:08.424Z,101545.31
2022-10-12T06:43:38.219Z,101543.91
2022-10-12T06:46:06.851Z,101546.19
2022-10-12T06:48:35.165Z,101552.53
2022-10-12T06:51:03.477Z,101552.13
2022-10-12T06:53:33.140Z,101560.59
2022-10-12T06:56:01.618Z,101561.91
2022-10-12T06:58:29.981Z,101566.41
2022-10-12T07:01:05.399Z,101567.28
2022-10-12T07:03:37.110Z,101498.91
2022-10-12T07:06:09.939Z,101572.34
2022-10-12T07:08:42.189Z,101580.16
2022-10-12T07:11:12.334Z,101583.78
2022-10-12T07:13:40.826Z,101584.34
2022-10-12T07:16:11.813Z,101585.25
2022-10-12T07:18:43.869Z,101587.69
2022-10-12T07:21:12.465Z,101589.34
2022-10-12T07:23:45.712Z,101591.34
2022-10-12T07:26:14.645Z,101581.97
2022-10-12T07:28:43.031Z,101581.34
2022-10-12T07:31:12.987Z,101587.44
2022-10-12T07:33:41.622Z,101583.22
2022-10-12T07:36:15.056Z,101587.97
2022-10-12T07:38:45.513Z,101585.59
2022-10-12T07:41:14.730Z,101595.16
2022-10-12T07:43:43.476Z,101587.41
2022-10-12T07:46:13.348Z,101588.91
2022-10-12T07:48:47.300Z,101594.16
2022-10-12T07:51:18.308Z,101605.47
2022-10-12T07:53:46.517Z,101592.47
2022-10-12T07:56:18.502Z,101599.91
2022-10-12T07:58:50.316Z,101603.34
2022-10-12T08:01:21.169Z,101597.59
2022-10-12T08:03:49.748Z,101602.88
2022-10-12T08:06:20.588Z,101605.25
2022-10-12T08:08:49.686Z,101605.44
2022-10-12T08:11:18.574Z,101607.47
2022-10-12T08:13:47.768Z,101605.59
2022-10-12T08:16:17.815Z,101602.88
2022-10-12T08:18:47.938Z,101600.69
2022-10-12T08:21:18.008Z,101593.22
2022-10-12T08:23:46.818Z,101594.75
2022-10-12T08:26:17.042Z,101598.31
2022-10-12T08:28:46.069Z,101588.50
2022-10-12T08:31:17.725Z,101602.34
2022-10-12T08:33:47.538Z,101603.53
2022-10-12T08:36:15.874Z,101608.41
2022-10-12T08:38:45.579Z,101612.44
2022-10-12T08:41:34.807Z,101612.06
2022-10-12T08:44:17.233Z,101607.69
2022-10-12T08:46:46.300Z,101610.38
2022-10-12T08:49:20.988Z,101612.06
2022-10-12T08:51:53.743Z,101615.81
2022-10-12T08:54:26.166Z,101611.91
2022-10-12T08:56:55.937Z,101610.38
2022-10-12T08:59:26.217Z,101618.69
2022-10-12T09:02:07.140Z,101612.09
2022-10-12T09:04:47.862Z,101619.84
2022-10-12T09:07:21.805Z,101610.19
2022-10-12T09:10:03.875Z,101620.78
2022-10-12T09:12:45.423Z,101621.09
2022-10-12T09:15:17.633Z,101621.22
2022-10-12T09:17:50.311Z,101596.41
2022-10-12T09:20:22.503Z,101619.69
2022-10-12T09:22:52.896Z,101622.03
2022-10-12T09:25:25.552Z,101619.44
2022-10-12T09:27:54.925Z,101618.53
2022-10-12T09:30:23.232Z,101621.03
2022-10-12T09:33:08.109Z,101579.75
2022-10-12T09:35:38.669Z,101623.41
2022-10-12T09:38:07.927Z,101619.84
2022-10-12T09:40:36.279Z,101624.16
2022-10-12T09:43:05.289Z,101626.78
2022-10-12T09:45:36.205Z,101624.88
2022-10-12T09:48:13.521Z,101629.56
2022-10-12T09:50:47.057Z,101629.81
2022-10-12T09:53:22.715Z,101617.50
2022-10-12T09:56:11.741Z,101620.47
2022-10-12T09:58:51.174Z,101631.81
2022-10-12T10:01:30.373Z,101623.94
2022-10-12T10:04:16.287Z,101626.31
2022-10-12T10:06:48.052Z,101570.69
2022-10-12T10:09:30.346Z,101626.22
2022-10-12T10:11:59.166Z,101627.81
2022-10-12T10:14:27.414Z,101622.97
2022-10-12T10:16:56.021Z,101624.16
2022-10-12T10:19:26.603Z,101597.22
2022-10-12T10:21:56.855Z,101611.53
2022-10-12T10:24:29.231Z,101612.06
2022-10-12T10:26:59.758Z,101617.94
2022-10-12T10:29:39.189Z,101607.53
2022-10-12T10:32:24.340Z,101610.44
2022-10-12T10:35:03.446Z,101615.22
2022-10-12T10:37:34.442Z,101603.00
2022-10-12T10:40:04.047Z,101612.22
2022-10-12T10:42:34.968Z,101610.56
2022-10-12T10:45:07.183Z,101617.47
2022-10-12T10:47:43.104Z,101574.16
2022-10-12T10:50:27.118Z,101613.53
2022-10-12T10:53:00.244Z,101617.38
2022-10-12T10:55:42.373Z,101609.59
2022-10-12T10:58:22.034Z,101606.66
2022-10-12T11:00:52.778Z,101601.97
2022-10-12T11:03:28.454Z,101602.81
2022-10-12T11:06:04.869Z,101587.00
2022-10-12T11:08:38.344Z,101607.66
2022-10-12T11:11:12.400Z,101600.97
2022-10-12T11:13:45.163Z,101603.69
2022-10-12T11:16:26.106Z,101602.66
2022-10-12T11:18:57.466Z,101534.38
2022-10-12T11:21:31.997Z,101587.66
2022-10-12T11:24:10.531Z,101586.09
2022-10-12T11:26:46.322Z,101534.63
2022-10-12T11:29:17.991Z,101587.44
2022-10-12T11:31:54.811Z,101578.22
2022-10-12T11:34:26.201Z,101579.72
2022-10-12T11:37:18.167Z,101579.13
2022-10-12T11:39:49.946Z,101571.59
2022-10-12T11:42:28.968Z,101562.16
2022-10-12T11:44:57.829Z,101563.84
2022-10-12T11:47:35.822Z,101559.25
2022-10-12T11:50:06.831Z,101562.41
2022-10-12T11:52:41.212Z,101554.28
2022-10-12T11:55:28.168Z,101554.06
2022-10-12T11:58:01.545Z,101552.63
2022-10-12T12:00:38.477Z,101552.44
2022-10-12T12:03:19.749Z,101547.56
2022-10-12T12:05:48.158Z,101542.06
2022-10-12T12:08:23.935Z,101546.28
2022-10-12T12:11:08.414Z,101543.31
2022-10-12T12:13:36.734Z,101537.63
2022-10-12T12:16:45.015Z,101541.38
2022-10-12T12:19:37.932Z,101533.44
2022-10-12T12:22:23.514Z,101539.38
2022-10-12T12:25:20.137Z,101541.97
2022-10-12T12:27:53.169Z,101537.19
2022-10-12T12:30:38.600Z,101537.25
2022-10-12T12:33:28.032Z,101537.66
2022-10-12T12:35:59.541Z,101535.38
2022-10-12T12:38:33.575Z,101529.94
2022-10-12T12:41:05.871Z,101529.50
2022-10-12T12:44:01.626Z,101524.25
2022-10-12T12:47:32.993Z,101511.25
2022-10-12T12:50:00.963Z,101506.44
2022-10-12T12:52:31.450Z,101510.66
2022-10-12T12:55:23.594Z,101499.72
2022-10-12T12:58:21.898Z,101492.59
2022-10-12T13:01:05.417Z,101498.28
2022-10-12T13:03:57.166Z,101498.91
2022-10-12T13:07:15.721Z,101494.47
2022-10-12T13:09:57.330Z,101493.84
2022-10-12T13:12:37.372Z,101494.03
2022-10-12T13:15:30.077Z,101486.69
2022-10-12T13:18:46.331Z,101484.19
2022-10-12T13:21:19.854Z,101479.16
2022-10-12T13:23:50.355Z,101487.53
2022-10-12T13:26:25.117Z,101488.81
2022-10-12T13:28:55.274Z,101492.16
2022-10-12T13:31:29.079Z,101487.16
2022-10-12T13:34:10.996Z,101484.22
2022-10-12T13:36:50.576Z,101484.59
2022-10-12T13:39:20.835Z,101483.13
2022-10-12T13:41:51.212Z,101473.28
2022-10-12T13:44:23.426Z,101476.25
2022-10-12T13:46:56.494Z,101472.84
2022-10-12T13:49:28.516Z,101469.09
2022-10-12T13:51:59.514Z,101468.47
2022-10-12T13:54:35.593Z,101457.78
2022-10-12T13:57:11.370Z,101460.25
2022-10-12T13:59:40.723Z,101457.75
2022-10-12T14:02:19.173Z,101437.59
2022-10-12T14:04:48.954Z,101463.59
2022-10-12T14:07:20.994Z,101462.13
2022-10-12T14:09:54.572Z,101460.66
2022-10-12T14:12:25.686Z,101460.25
2022-10-12T14:14:54.964Z,101464.44
2022-10-12T14:17:23.430Z,101463.19
2022-10-12T14:19:56.193Z,101393.56
2022-10-12T14:22:28.955Z,101466.56
2022-10-12T14:25:16.612Z,101463.19
2022-10-12T14:27:45.422Z,101468.25
2022-10-12T14:30:19.890Z,101456.53
2022-10-12T14:32:49.235Z,101466.16
2022-10-12T14:35:28.026Z,101463.44
2022-10-12T14:37:57.608Z,101461.94
2022-10-12T14:40:35.346Z,101465.28
2022-10-12T14:43:08.180Z,101447.06
2022-10-12T14:45:37.437Z,101473.91
2022-10-12T14:48:07.222Z,101477.25
2022-10-12T14:50:36.988Z,101467.19
2022-10-12T14:53:10.447Z,101450.81
2022-10-12T14:55:38.835Z,101475.59
2022-10-12T14:58:09.704Z,101474.94
2022-10-12T15:00:40.472Z,101451.00
2022-10-12T15:03:08.859Z,101466.34
2022-10-12T15:05:38.560Z,101469.69
2022-10-12T15:08:09.097Z,101467.78
2022-10-12T15:10:38.423Z,101470.28
2022-10-12T15:13:06.685Z,101476.56
2022-10-12T15:15:39.675Z,101469.00
2022-10-12T15:18:08.253Z,101476.09
2022-10-12T15:20:38.375Z,101471.06
2022-10-12T15:23:07.632Z,101481.53
2022-10-12T15:25:46.128Z,101482.78
2022-10-12T15:28:14.831Z,101481.94
2022-10-12T15:31:11.707Z,101480.66
2022-10-12T15:33:32.035Z,101475.16
2022-10-12T15:36:01.768Z,101484.59
2022-10-12T15:38:30.226Z,101472.22
2022-10-12T15:40:59.135Z,101477.88
2022-10-12T15:43:27.920Z,101472.19
2022-10-12T15:45:57.613Z,101464.22
2022-10-12T15:48:27.887Z,101474.06
2022-10-12T15:50:56.228Z,101467.34
2022-10-12T15:53:27.409Z,101444.19
2022-10-12T15:55:57.217Z,101465.22
2022-10-12T15:58:25.459Z,101463.75
2022-10-12T16:00:53.966Z,101468.53
2022-10-12T16:03:25.969Z,101466.22
2022-10-12T16:05:54.988Z,101462.00
2022-10-12T16:08:26.238Z,101468.28
2022-10-12T16:10:54.747Z,101467.63
2022-10-12T16:13:23.068Z,101465.75
2022-10-12T16:15:51.470Z,101464.91
2022-10-12T16:18:19.932Z,101457.78
2022-10-12T16:20:53.624Z,101454.41
2022-10-12T16:23:27.705Z,101455.69
2022-10-12T16:25:56.567Z,101414.50
2022-10-12T16:28:25.110Z,101455.66
2022-10-12T16:30:53.867Z,101451.66
2022-10-12T16:33:22.422Z,101449.91
2022-10-12T16:35:50.743Z,101454.28
2022-10-12T16:38:20.200Z,101452.56
2022-10-12T16:40:51.061Z,101453.94
2022-10-12T16:43:20.653Z,101454.09
2022-10-12T16:45:56.954Z,101452.19
2022-10-12T16:48:25.228Z,101451.28
2022-10-12T16:50:54.564Z,101454.94
2022-10-12T16:53:22.819Z,101462.66
2022-10-12T16:55:52.966Z,101463.47
2022-10-12T16:58:21.346Z,101468.75
2022-10-12T17:00:49.604Z,101466.56
2022-10-12T17:03:17.921Z,101467.94
2022-10-12T17:05:46.110Z,101469.66
2022-10-12T17:08:15.677Z,101477.84
2022-10-12T17:10:45.283Z,101477.09
2022-10-12T17:13:14.978Z,101482.59
2022-10-12T17:15:44.122Z,101466.75
2022-10-12T17:18:12.617Z,101480.97
2022-10-12T17:20:40.840Z,101487.97
2022-10-12T17:23:09.254Z,101492.94
2022-10-12T17:25:37.537Z,101484.34
2022-10-12T17:28:06.054Z,101490.59
2022-10-12T17:30:38.442Z,101487.44
2022-10-12T17:33:06.819Z,101499.41
2022-10-12T17:35:39.834Z,101504.72
2022-10-12T17:38:10.950Z,101505.66
2022-10-12T17:40:40.158Z,101503.41
2022-10-12T17:43:08.467Z,101393.22
2022-10-12T17:45:40.754Z,101506.34
2022-10-12T17:48:09.188Z,101515.19
2022-10-12T17:50:39.383Z,101510.84
2022-10-12T17:53:09.351Z,101521.41
2022-10-12T17:55:58.942Z,101523.81
2022-10-12T17:58:27.467Z,101524.91
2022-10-12T18:00:57.344Z,101538.50
2022-10-12T18:03:28.173Z,101529.97
2022-10-12T18:05:56.387Z,101537.41
2022-10-12T18:08:24.608Z,101542.00
2022-10-12T18:10:52.897Z,101545.06
2022-10-12T18:13:21.550Z,101545.75
2022-10-12T18:15:50.025Z,101554.53
2022-10-12T18:18:19.738Z,101553.59
2022-10-12T18:20:48.346Z,101552.47
2022-10-12T18:23:17.390Z,101552.88
2022-10-12T18:25:47.671Z,101552.53
2022-10-12T18:28:16.374Z,101552.03
2022-10-12T18:30:50.369Z,101553.09
2022-10-12T18:33:21.041Z,101565.94
2022-10-12T18:35:49.313Z,101563.28
2022-10-12T18:38:17.585Z,101567.69
2022-10-12T18:40:47.635Z,101568.69
2022-10-12T18:43:16.057Z,101564.31
2022-10-12T18:45:45.276Z,101562.97
2022-10-12T18:48:13.688Z,101564.66
2022-10-12T18:50:43.330Z,101561.94
2022-10-12T18:53:11.558Z,101555.88
2022-10-12T18:55:40.583Z,101562.47
2022-10-12T18:58:08.854Z,101567.03
2022-10-12T19:00:37.259Z,101571.06
2022-10-12T19:03:05.697Z,101581.56
2022-10-12T19:05:33.936Z,101577.34
2022-10-12T19:08:04.594Z,101581.56
2022-10-12T19:10:32.865Z,101577.75
2022-10-12T19:13:01.190Z,101591.00
2022-10-12T19:15:29.863Z,101579.19
2022-10-12T19:17:58.149Z,101588.28
2022-10-12T19:20:26.482Z,101584.25
2022-10-12T19:22:54.810Z,101590.28
2022-10-12T19:25:24.542Z,101586.22
2022-10-12T19:27:54.799Z,101595.09
2022-10-12T19:30:23.067Z,101600.13
2022-10-12T19:32:51.352Z,101599.63
2022-10-12T19:35:20.529Z,101598.13
2022-10-12T19:37:48.871Z,101607.06
2022-10-12T19:40:18.191Z,101603.00
2022-10-12T19:42:48.583Z,101604.69
2022-10-12T19:45:17.039Z,101605.69
2022-10-12T19:47:45.332Z,101607.69
2022-10-12T19:50:13.599Z,101608.22
2022-10-12T19:52:41.950Z,101612.41
2022-10-12T19:55:11.284Z,101613.06
2022-10-12T19:57:39.639Z,101612.00
2022-10-12T20:00:11.124Z,101620.41
2022-10-12T20:02:41.408Z,101626.66
2022-10-12T20:05:10.615Z,101621.72
2022-10-12T20:07:39.215Z,101628.91
2022-10-12T20:10:08.863Z,101621.81
2022-10-12T20:12:38.230Z,101629.22
2022-10-12T20:15:07.899Z,101633.94
2022-10-12T20:17:38.388Z,101637.44
2022-10-12T20:20:07.627Z,101643.47
2022-10-12T20:22:36.203Z,101639.56
2022-10-12T20:25:09.410Z,101646.94
2022-10-12T20:27:38.297Z,101647.72
2022-10-12T20:30:07.962Z,101649.22
2022-10-12T20:32:37.937Z,101644.09
2022-10-12T20:35:07.089Z,101644.41
2022-10-12T20:37:35.798Z,101647.88
2022-10-12T20:40:04.233Z,101653.59
2022-10-12T20:42:32.554Z,101649.66
2022-10-12T20:45:00.848Z,101640.72
2022-10-12T20:47:29.160Z,101643.09
2022-10-12T20:49:58.851Z,101652.88
2022-10-12T20:52:27.244Z,101659.59
2022-10-12T20:54:56.502Z,101656.69
2022-10-12T20:57:30.543Z,101657.59
2022-10-12T21:00:00.569Z,101649.06
2022-10-12T21:02:28.818Z,101658.00
2022-10-12T21:04:58.490Z,101654.47
2022-10-12T21:07:27.142Z,101607.50
2022-10-12T21:09:55.370Z,101652.38
2022-10-12T21:12:23.735Z,101632.44
2022-10-12T21:14:52.026Z,101652.97
2022-10-12T21:17:20.317Z,101654.66
2022-10-12T21:19:49.542Z,101662.19
2022-10-12T21:22:19.569Z,101664.00
2022-10-12T21:24:48.082Z,101664.00
2022-10-12T21:27:16.347Z,101669.69
2022-10-12T21:29:44.643Z,101669.44
2022-10-12T21:32:12.939Z,101665.78
2022-10-12T21:34:41.178Z,101662.78
2022-10-12T21:37:09.420Z,101672.16
2022-10-12T21:39:39.082Z,101660.72
2022-10-12T21:42:07.467Z,101654.94
2022-10-12T21:44:35.696Z,101662.88
2022-10-12T21:47:04.093Z,101660.72
2022-10-12T21:49:33.934Z,101659.19
2022-10-12T21:52:02.287Z,101648.16
2022-10-12T21:54:30.728Z,101657.25
2022-10-12T21:57:00.377Z,101653.59
2022-10-12T21:59:29.345Z,101654.75
2022-10-12T22:01:57.607Z,101630.31
2022-10-12T22:04:27.337Z,101641.31
2022-10-12T22:07:00.326Z,101641.63
2022-10-12T22:09:28.962Z,101636.69
2022-10-12T22:11:57.450Z,101643.34
2022-10-12T22:14:27.154Z,101636.72
2022-10-12T22:16:55.999Z,101643.72
2022-10-12T22:19:24.602Z,101651.22
2022-10-12T22:21:54.178Z,101651.50
2022-10-12T22:24:28.678Z,101656.19
2022-10-12T22:26:56.949Z,101655.19
2022-10-12T22:29:26.620Z,101653.66
2022-10-12T22:31:55.279Z,101656.47
2022-10-12T22:34:23.534Z,101652.38
2022-10-12T22:36:51.859Z,101654.06
2022-10-12T22:39:25.761Z,101651.97
2022-10-12T22:41:54.381Z,101649.56
2022-10-12T22:44:22.878Z,101654.72
2022-10-12T22:46:56.933Z,101645.94
2022-10-12T22:49:25.176Z,101657.25
2022-10-12T22:51:53.893Z,101662.63
2022-10-12T22:54:22.236Z,101663.63
2022-10-12T22:56:51.433Z,101668.03
2022-10-12T22:59:19.871Z,101661.66
2022-10-12T23:01:48.155Z,101654.19
2022-10-12T23:04:17.867Z,101655.63
2022-10-12T23:06:46.110Z,101664.81
2022-10-12T23:09:14.467Z,101665.09
2022-10-12T23:11:42.762Z,101662.97
2022-10-12T23:14:12.118Z,101632.84
2022-10-12T23:16:40.387Z,101661.69
2022-10-12T23:19:08.656Z,101660.84
2022-10-12T23:21:38.265Z,101658.88
2022-10-12T23:24:07.195Z,101661.97
2022-10-12T23:26:35.729Z,101646.31
2022-10-12T23:29:04.103Z,101651.25
2022-10-12T23:31:35.622Z,101641.75
2022-10-12T23:34:06.779Z,101648.25
2022-10-12T23:36:35.741Z,101649.53
2022-10-12T23:39:06.863Z,101623.53
2022-10-12T23:41:35.162Z,101656.28
2022-10-12T23:44:03.633Z,101644.56
2022-10-12T23:46:32.087Z,101610.09
2022-10-12T23:49:00.334Z,101634.25
2022-10-12T23:51:28.585Z,101639.06
2022-10-12T23:53:56.877Z,101642.88
2022-10-12T23:56:26.705Z,101636.94
2022-10-12T23:58:55.065Z,101640.88
